sensor_id;sensor_type;location;lat;lon;timestamp;P1;durP1;ratioP1;P2;durP2;ratioP2
43449;SDS011;29041;42.266;23.110;2023-07-20T00:01:37;8.95;;;1.00;;
43449;SDS011;29041;42.266;23.110;2023-07-20T00:04:25;2.30;;;0.73;;
43449;SDS011;29041;42.266;23.110;2023-07-20T00:07:12;3.65;;;1.10;;
43449;SDS011;29041;42.266;23.110;2023-07-20T00:09:59;5.35;;;0.88;;
43449;SDS011;29041;42.266;23.110;2023-07-20T00:12:47;3.45;;;1.00;;
43449;SDS011;29041;42.266;23.110;2023-07-20T00:15:34;2.13;;;0.82;;
43449;SDS011;29041;42.266;23.110;2023-07-20T00:18:21;1.92;;;1.08;;
43449;SDS011;29041;42.266;23.110;2023-07-20T00:21:10;2.20;;;0.65;;
43449;SDS011;29041;42.266;23.110;2023-07-20T00:23:57;4.70;;;0.90;;
43449;SDS011;29041;42.266;23.110;2023-07-20T00:26:44;3.33;;;1.10;;
43449;SDS011;29041;42.266;23.110;2023-07-20T00:29:31;3.45;;;0.98;;
43449;SDS011;29041;42.266;23.110;2023-07-20T00:32:18;4.30;;;1.60;;
43449;SDS011;29041;42.266;23.110;2023-07-20T00:35:06;3.35;;;0.90;;
43449;SDS011;29041;42.266;23.110;2023-07-20T00:37:54;0.77;;;0.40;;
43449;SDS011;29041;42.266;23.110;2023-07-20T00:40:42;2.13;;;0.73;;
43449;SDS011;29041;42.266;23.110;2023-07-20T00:43:29;2.28;;;0.77;;
43449;SDS011;29041;42.266;23.110;2023-07-20T00:46:16;1.20;;;0.55;;
43449;SDS011;29041;42.266;23.110;2023-07-20T00:49:03;4.82;;;1.45;;
43449;SDS011;29041;42.266;23.110;2023-07-20T00:51:51;4.95;;;0.75;;
43449;SDS011;29041;42.266;23.110;2023-07-20T00:54:40;6.90;;;1.42;;
43449;SDS011;29041;42.266;23.110;2023-07-20T00:57:28;6.35;;;1.77;;
43449;SDS011;29041;42.266;23.110;2023-07-20T01:00:15;4.22;;;1.15;;
43449;SDS011;29041;42.266;23.110;2023-07-20T01:03:03;1.70;;;1.00;;
43449;SDS011;29041;42.266;23.110;2023-07-20T01:05:51;2.25;;;0.73;;
43449;SDS011;29041;42.266;23.110;2023-07-20T01:08:44;1.48;;;0.80;;
43449;SDS011;29041;42.266;23.110;2023-07-20T01:14:25;2.38;;;1.10;;
43449;SDS011;29041;42.266;23.110;2023-07-20T01:17:13;3.53;;;0.90;;
43449;SDS011;29041;42.266;23.110;2023-07-20T01:20:00;4.43;;;0.85;;
43449;SDS011;29041;42.266;23.110;2023-07-20T01:26:12;3.90;;;0.77;;
43449;SDS011;29041;42.266;23.110;2023-07-20T01:29:22;3.30;;;0.98;;
43449;SDS011;29041;42.266;23.110;2023-07-20T01:32:21;9.07;;;1.02;;
43449;SDS011;29041;42.266;23.110;2023-07-20T01:35:11;3.85;;;2.05;;
43449;SDS011;29041;42.266;23.110;2023-07-20T01:38:00;2.35;;;0.63;;
43449;SDS011;29041;42.266;23.110;2023-07-20T01:40:48;3.53;;;1.08;;
43449;SDS011;29041;42.266;23.110;2023-07-20T01:43:36;3.95;;;1.15;;
43449;SDS011;29041;42.266;23.110;2023-07-20T01:46:23;3.35;;;0.70;;
43449;SDS011;29041;42.266;23.110;2023-07-20T01:49:12;5.00;;;1.33;;
43449;SDS011;29041;42.266;23.110;2023-07-20T01:51:59;2.33;;;0.75;;
43449;SDS011;29041;42.266;23.110;2023-07-20T01:54:46;2.05;;;0.80;;
43449;SDS011;29041;42.266;23.110;2023-07-20T01:57:33;2.95;;;1.02;;
43449;SDS011;29041;42.266;23.110;2023-07-20T02:00:20;4.70;;;0.80;;
43449;SDS011;29041;42.266;23.110;2023-07-20T02:03:09;2.10;;;1.10;;
43449;SDS011;29041;42.266;23.110;2023-07-20T02:05:59;1.63;;;1.02;;
43449;SDS011;29041;42.266;23.110;2023-07-20T02:08:46;2.17;;;0.95;;
43449;SDS011;29041;42.266;23.110;2023-07-20T02:11:33;2.00;;;1.00;;
43449;SDS011;29041;42.266;23.110;2023-07-20T02:14:20;4.50;;;1.23;;
43449;SDS011;29041;42.266;23.110;2023-07-20T02:17:09;3.70;;;1.45;;
43449;SDS011;29041;42.266;23.110;2023-07-20T02:19:57;4.30;;;1.25;;
43449;SDS011;29041;42.266;23.110;2023-07-20T02:22:46;1.88;;;0.80;;
43449;SDS011;29041;42.266;23.110;2023-07-20T02:25:33;1.58;;;1.00;;
43449;SDS011;29041;42.266;23.110;2023-07-20T02:28:20;1.70;;;0.70;;
43449;SDS011;29041;42.266;23.110;2023-07-20T02:31:07;3.28;;;0.93;;
43449;SDS011;29041;42.266;23.110;2023-07-20T02:33:54;4.00;;;1.48;;
43449;SDS011;29041;42.266;23.110;2023-07-20T02:36:41;4.60;;;1.83;;
43449;SDS011;29041;42.266;23.110;2023-07-20T02:39:30;4.35;;;1.30;;
43449;SDS011;29041;42.266;23.110;2023-07-20T02:42:17;5.40;;;1.35;;
43449;SDS011;29041;42.266;23.110;2023-07-20T02:45:15;4.22;;;1.55;;
43449;SDS011;29041;42.266;23.110;2023-07-20T02:48:03;2.97;;;1.40;;
43449;SDS011;29041;42.266;23.110;2023-07-20T02:50:53;3.20;;;2.03;;
43449;SDS011;29041;42.266;23.110;2023-07-20T02:53:40;3.63;;;1.60;;
43449;SDS011;29041;42.266;23.110;2023-07-20T02:56:29;9.77;;;1.10;;
43449;SDS011;29041;42.266;23.110;2023-07-20T02:59:16;3.22;;;1.45;;
43449;SDS011;29041;42.266;23.110;2023-07-20T03:02:04;3.88;;;1.02;;
43449;SDS011;29041;42.266;23.110;2023-07-20T03:04:51;6.55;;;3.25;;
43449;SDS011;29041;42.266;23.110;2023-07-20T03:07:39;5.95;;;2.22;;
43449;SDS011;29041;42.266;23.110;2023-07-20T03:10:29;3.00;;;1.50;;
43449;SDS011;29041;42.266;23.110;2023-07-20T03:13:17;3.38;;;1.77;;
43449;SDS011;29041;42.266;23.110;2023-07-20T03:16:04;6.63;;;2.33;;
43449;SDS011;29041;42.266;23.110;2023-07-20T03:18:56;4.95;;;1.75;;
43449;SDS011;29041;42.266;23.110;2023-07-20T03:21:49;1.65;;;1.13;;
43449;SDS011;29041;42.266;23.110;2023-07-20T03:24:36;4.60;;;1.33;;
43449;SDS011;29041;42.266;23.110;2023-07-20T03:27:23;2.60;;;1.27;;
43449;SDS011;29041;42.266;23.110;2023-07-20T03:30:11;3.83;;;1.15;;
43449;SDS011;29041;42.266;23.110;2023-07-20T03:32:59;3.72;;;1.40;;
43449;SDS011;29041;42.266;23.110;2023-07-20T03:35:46;2.05;;;1.20;;
43449;SDS011;29041;42.266;23.110;2023-07-20T03:38:33;3.47;;;1.52;;
43449;SDS011;29041;42.266;23.110;2023-07-20T03:41:20;3.47;;;2.03;;
43449;SDS011;29041;42.266;23.110;2023-07-20T03:44:07;3.05;;;1.80;;
43449;SDS011;29041;42.266;23.110;2023-07-20T03:46:56;0.98;;;0.80;;
43449;SDS011;29041;42.266;23.110;2023-07-20T03:49:43;4.18;;;1.35;;
43449;SDS011;29041;42.266;23.110;2023-07-20T03:52:33;2.13;;;1.52;;
43449;SDS011;29041;42.266;23.110;2023-07-20T03:55:20;3.10;;;1.40;;
43449;SDS011;29041;42.266;23.110;2023-07-20T03:58:07;3.63;;;1.77;;
43449;SDS011;29041;42.266;23.110;2023-07-20T04:00:54;3.78;;;2.08;;
43449;SDS011;29041;42.266;23.110;2023-07-20T04:03:43;4.18;;;1.90;;
43449;SDS011;29041;42.266;23.110;2023-07-20T04:06:30;3.78;;;1.40;;
43449;SDS011;29041;42.266;23.110;2023-07-20T04:09:17;2.58;;;1.15;;
43449;SDS011;29041;42.266;23.110;2023-07-20T04:12:04;4.70;;;2.03;;
43449;SDS011;29041;42.266;23.110;2023-07-20T04:14:52;3.15;;;1.38;;
43449;SDS011;29041;42.266;23.110;2023-07-20T04:17:39;7.80;;;1.48;;
43449;SDS011;29041;42.266;23.110;2023-07-20T04:20:28;4.85;;;1.67;;
43449;SDS011;29041;42.266;23.110;2023-07-20T04:23:15;4.25;;;1.33;;
43449;SDS011;29041;42.266;23.110;2023-07-20T04:26:03;4.43;;;1.55;;
43449;SDS011;29041;42.266;23.110;2023-07-20T04:28:52;3.47;;;1.70;;
43449;SDS011;29041;42.266;23.110;2023-07-20T04:31:39;6.88;;;3.25;;
43449;SDS011;29041;42.266;23.110;2023-07-20T04:34:26;5.50;;;1.70;;
43449;SDS011;29041;42.266;23.110;2023-07-20T04:37:15;3.28;;;1.60;;
43449;SDS011;29041;42.266;23.110;2023-07-20T04:40:02;2.80;;;1.10;;
43449;SDS011;29041;42.266;23.110;2023-07-20T04:42:49;6.68;;;1.92;;
43449;SDS011;29041;42.266;23.110;2023-07-20T04:45:37;3.35;;;1.58;;
43449;SDS011;29041;42.266;23.110;2023-07-20T04:48:24;4.97;;;1.90;;
43449;SDS011;29041;42.266;23.110;2023-07-20T04:51:11;5.22;;;3.30;;
43449;SDS011;29041;42.266;23.110;2023-07-20T04:53:59;4.30;;;1.88;;
43449;SDS011;29041;42.266;23.110;2023-07-20T04:56:46;4.40;;;2.50;;
43449;SDS011;29041;42.266;23.110;2023-07-20T04:59:33;8.18;;;2.22;;
43449;SDS011;29041;42.266;23.110;2023-07-20T05:02:21;3.20;;;2.35;;
43449;SDS011;29041;42.266;23.110;2023-07-20T05:05:08;3.03;;;1.40;;
43449;SDS011;29041;42.266;23.110;2023-07-20T05:07:55;7.32;;;2.25;;
43449;SDS011;29041;42.266;23.110;2023-07-20T05:10:43;7.20;;;2.50;;
43449;SDS011;29041;42.266;23.110;2023-07-20T05:13:30;4.55;;;2.08;;
43449;SDS011;29041;42.266;23.110;2023-07-20T05:16:18;6.53;;;2.13;;
43449;SDS011;29041;42.266;23.110;2023-07-20T05:19:05;6.43;;;1.75;;
43449;SDS011;29041;42.266;23.110;2023-07-20T05:21:52;5.88;;;1.60;;
43449;SDS011;29041;42.266;23.110;2023-07-20T05:24:39;3.92;;;1.40;;
43449;SDS011;29041;42.266;23.110;2023-07-20T05:27:27;2.28;;;1.48;;
43449;SDS011;29041;42.266;23.110;2023-07-20T05:30:15;5.03;;;2.03;;
43449;SDS011;29041;42.266;23.110;2023-07-20T05:33:02;2.72;;;1.63;;
43449;SDS011;29041;42.266;23.110;2023-07-20T05:35:49;4.55;;;2.35;;
43449;SDS011;29041;42.266;23.110;2023-07-20T05:38:36;5.53;;;2.20;;
43449;SDS011;29041;42.266;23.110;2023-07-20T05:41:23;9.45;;;1.88;;
43449;SDS011;29041;42.266;23.110;2023-07-20T05:44:12;11.00;;;2.35;;
43449;SDS011;29041;42.266;23.110;2023-07-20T05:46:59;4.43;;;1.67;;
43449;SDS011;29041;42.266;23.110;2023-07-20T05:49:48;2.58;;;1.60;;
43449;SDS011;29041;42.266;23.110;2023-07-20T05:52:35;6.18;;;2.15;;
43449;SDS011;29041;42.266;23.110;2023-07-20T05:55:24;1.88;;;1.08;;
43449;SDS011;29041;42.266;23.110;2023-07-20T05:58:11;3.65;;;1.42;;
43449;SDS011;29041;42.266;23.110;2023-07-20T06:00:59;4.00;;;2.05;;
43449;SDS011;29041;42.266;23.110;2023-07-20T06:03:47;3.85;;;1.23;;
43449;SDS011;29041;42.266;23.110;2023-07-20T06:06:34;3.55;;;1.92;;
43449;SDS011;29041;42.266;23.110;2023-07-20T06:09:22;6.80;;;1.85;;
43449;SDS011;29041;42.266;23.110;2023-07-20T06:12:09;7.10;;;1.92;;
43449;SDS011;29041;42.266;23.110;2023-07-20T06:14:56;3.03;;;1.48;;
43449;SDS011;29041;42.266;23.110;2023-07-20T06:17:45;5.50;;;2.60;;
43449;SDS011;29041;42.266;23.110;2023-07-20T06:20:32;8.02;;;2.03;;
43449;SDS011;29041;42.266;23.110;2023-07-20T06:23:19;7.15;;;2.00;;
43449;SDS011;29041;42.266;23.110;2023-07-20T06:26:07;4.90;;;2.20;;
43449;SDS011;29041;42.266;23.110;2023-07-20T06:28:55;4.38;;;1.92;;
43449;SDS011;29041;42.266;23.110;2023-07-20T06:31:42;6.68;;;1.85;;
43449;SDS011;29041;42.266;23.110;2023-07-20T06:34:31;4.85;;;2.08;;
43449;SDS011;29041;42.266;23.110;2023-07-20T06:37:22;6.40;;;2.10;;
43449;SDS011;29041;42.266;23.110;2023-07-20T06:40:09;5.38;;;2.25;;
43449;SDS011;29041;42.266;23.110;2023-07-20T06:42:57;3.65;;;2.00;;
43449;SDS011;29041;42.266;23.110;2023-07-20T06:45:44;5.03;;;2.05;;
43449;SDS011;29041;42.266;23.110;2023-07-20T06:48:38;2.58;;;2.03;;
43449;SDS011;29041;42.266;23.110;2023-07-20T06:51:27;3.65;;;2.13;;
43449;SDS011;29041;42.266;23.110;2023-07-20T06:54:14;4.10;;;2.03;;
43449;SDS011;29041;42.266;23.110;2023-07-20T06:57:01;8.65;;;2.10;;
43449;SDS011;29041;42.266;23.110;2023-07-20T06:59:49;7.80;;;2.25;;
43449;SDS011;29041;42.266;23.110;2023-07-20T07:02:36;7.90;;;2.42;;
43449;SDS011;29041;42.266;23.110;2023-07-20T07:05:23;5.85;;;1.88;;
43449;SDS011;29041;42.266;23.110;2023-07-20T07:08:11;5.53;;;2.15;;
43449;SDS011;29041;42.266;23.110;2023-07-20T07:10:59;13.32;;;2.58;;
43449;SDS011;29041;42.266;23.110;2023-07-20T07:13:46;3.88;;;2.22;;
43449;SDS011;29041;42.266;23.110;2023-07-20T07:16:36;12.70;;;2.30;;
43449;SDS011;29041;42.266;23.110;2023-07-20T07:19:23;7.43;;;1.95;;
43449;SDS011;29041;42.266;23.110;2023-07-20T07:22:10;6.45;;;2.25;;
43449;SDS011;29041;42.266;23.110;2023-07-20T07:25:00;5.05;;;1.85;;
43449;SDS011;29041;42.266;23.110;2023-07-20T07:27:48;5.55;;;2.97;;
43449;SDS011;29041;42.266;23.110;2023-07-20T07:30:37;6.75;;;2.75;;
43449;SDS011;29041;42.266;23.110;2023-07-20T07:33:24;5.90;;;1.98;;
43449;SDS011;29041;42.266;23.110;2023-07-20T07:36:11;5.95;;;2.50;;
43449;SDS011;29041;42.266;23.110;2023-07-20T07:38:58;11.90;;;2.85;;
43449;SDS011;29041;42.266;23.110;2023-07-20T07:41:48;4.20;;;1.98;;
43449;SDS011;29041;42.266;23.110;2023-07-20T07:44:35;8.52;;;2.90;;
43449;SDS011;29041;42.266;23.110;2023-07-20T07:47:22;7.20;;;2.58;;
43449;SDS011;29041;42.266;23.110;2023-07-20T07:50:09;6.10;;;2.30;;
43449;SDS011;29041;42.266;23.110;2023-07-20T07:52:57;11.45;;;2.60;;
43449;SDS011;29041;42.266;23.110;2023-07-20T07:55:44;5.55;;;3.05;;
43449;SDS011;29041;42.266;23.110;2023-07-20T07:58:33;3.65;;;2.30;;
43449;SDS011;29041;42.266;23.110;2023-07-20T08:01:20;6.20;;;3.22;;
43449;SDS011;29041;42.266;23.110;2023-07-20T08:04:07;8.05;;;2.30;;
43449;SDS011;29041;42.266;23.110;2023-07-20T08:06:54;2.53;;;1.95;;
43449;SDS011;29041;42.266;23.110;2023-07-20T08:09:41;6.10;;;2.83;;
43449;SDS011;29041;42.266;23.110;2023-07-20T08:12:29;4.43;;;2.47;;
43449;SDS011;29041;42.266;23.110;2023-07-20T08:15:18;7.53;;;2.30;;
43449;SDS011;29041;42.266;23.110;2023-07-20T08:18:05;5.22;;;2.17;;
43449;SDS011;29041;42.266;23.110;2023-07-20T08:20:53;4.25;;;2.05;;
43449;SDS011;29041;42.266;23.110;2023-07-20T08:23:40;7.47;;;2.53;;
43449;SDS011;29041;42.266;23.110;2023-07-20T08:26:27;3.60;;;2.08;;
43449;SDS011;29041;42.266;23.110;2023-07-20T08:29:15;8.73;;;2.58;;
43449;SDS011;29041;42.266;23.110;2023-07-20T08:32:04;4.85;;;2.30;;
43449;SDS011;29041;42.266;23.110;2023-07-20T08:34:51;7.50;;;2.92;;
43449;SDS011;29041;42.266;23.110;2023-07-20T08:37:39;5.57;;;3.25;;
43449;SDS011;29041;42.266;23.110;2023-07-20T08:40:26;3.00;;;2.58;;
43449;SDS011;29041;42.266;23.110;2023-07-20T08:43:13;5.13;;;3.05;;
43449;SDS011;29041;42.266;23.110;2023-07-20T08:46:02;4.32;;;2.65;;
43449;SDS011;29041;42.266;23.110;2023-07-20T08:48:52;6.63;;;2.53;;
43449;SDS011;29041;42.266;23.110;2023-07-20T08:51:40;4.88;;;2.38;;
43449;SDS011;29041;42.266;23.110;2023-07-20T08:54:29;4.53;;;2.22;;
43449;SDS011;29041;42.266;23.110;2023-07-20T08:57:18;3.58;;;2.55;;
43449;SDS011;29041;42.266;23.110;2023-07-20T09:00:08;5.30;;;2.95;;
43449;SDS011;29041;42.266;23.110;2023-07-20T09:02:58;4.78;;;2.47;;
43449;SDS011;29041;42.266;23.110;2023-07-20T09:05:49;6.47;;;2.30;;
43449;SDS011;29041;42.266;23.110;2023-07-20T09:08:37;3.35;;;2.63;;
43449;SDS011;29041;42.266;23.110;2023-07-20T09:11:25;4.85;;;3.25;;
43449;SDS011;29041;42.266;23.110;2023-07-20T09:14:12;6.82;;;3.10;;
43449;SDS011;29041;42.266;23.110;2023-07-20T09:16:59;5.15;;;2.72;;
43449;SDS011;29041;42.266;23.110;2023-07-20T09:19:47;7.20;;;3.75;;
43449;SDS011;29041;42.266;23.110;2023-07-20T09:22:36;6.15;;;3.35;;
43449;SDS011;29041;42.266;23.110;2023-07-20T09:25:25;5.50;;;3.22;;
43449;SDS011;29041;42.266;23.110;2023-07-20T09:28:14;9.43;;;3.13;;
43449;SDS011;29041;42.266;23.110;2023-07-20T09:31:01;7.38;;;3.63;;
43449;SDS011;29041;42.266;23.110;2023-07-20T09:34:03;6.05;;;3.25;;
43449;SDS011;29041;42.266;23.110;2023-07-20T09:36:51;6.18;;;2.20;;
43449;SDS011;29041;42.266;23.110;2023-07-20T09:39:43;2.40;;;1.77;;
43449;SDS011;29041;42.266;23.110;2023-07-20T09:42:31;5.30;;;1.60;;
43449;SDS011;29041;42.266;23.110;2023-07-20T09:45:18;6.35;;;1.98;;
43449;SDS011;29041;42.266;23.110;2023-07-20T09:48:06;12.57;;;2.42;;
43449;SDS011;29041;42.266;23.110;2023-07-20T09:50:54;5.35;;;1.73;;
43449;SDS011;29041;42.266;23.110;2023-07-20T09:53:42;4.15;;;1.58;;
43449;SDS011;29041;42.266;23.110;2023-07-20T09:56:32;3.47;;;2.00;;
43449;SDS011;29041;42.266;23.110;2023-07-20T09:59:20;4.82;;;1.50;;
43449;SDS011;29041;42.266;23.110;2023-07-20T10:02:09;7.82;;;1.80;;
43449;SDS011;29041;42.266;23.110;2023-07-20T10:05:06;7.10;;;2.13;;
43449;SDS011;29041;42.266;23.110;2023-07-20T10:07:55;5.68;;;1.65;;
43449;SDS011;29041;42.266;23.110;2023-07-20T10:10:44;3.15;;;1.90;;
43449;SDS011;29041;42.266;23.110;2023-07-20T10:13:36;2.95;;;1.88;;
43449;SDS011;29041;42.266;23.110;2023-07-20T10:16:26;5.10;;;2.10;;
43449;SDS011;29041;42.266;23.110;2023-07-20T10:19:17;8.40;;;1.77;;
43449;SDS011;29041;42.266;23.110;2023-07-20T10:22:12;5.05;;;1.85;;
43449;SDS011;29041;42.266;23.110;2023-07-20T10:25:03;4.07;;;1.45;;
43449;SDS011;29041;42.266;23.110;2023-07-20T10:27:52;7.35;;;1.88;;
43449;SDS011;29041;42.266;23.110;2023-07-20T10:30:41;5.32;;;1.88;;
43449;SDS011;29041;42.266;23.110;2023-07-20T10:33:29;2.97;;;1.67;;
43449;SDS011;29041;42.266;23.110;2023-07-20T10:36:20;3.47;;;1.60;;
43449;SDS011;29041;42.266;23.110;2023-07-20T10:39:21;4.40;;;2.17;;
43449;SDS011;29041;42.266;23.110;2023-07-20T10:42:10;3.53;;;1.20;;
43449;SDS011;29041;42.266;23.110;2023-07-20T10:44:57;6.68;;;2.17;;
43449;SDS011;29041;42.266;23.110;2023-07-20T10:47:46;5.50;;;2.30;;
43449;SDS011;29041;42.266;23.110;2023-07-20T10:50:33;3.17;;;1.80;;
43449;SDS011;29041;42.266;23.110;2023-07-20T10:53:20;8.27;;;1.80;;
43449;SDS011;29041;42.266;23.110;2023-07-20T10:56:08;4.40;;;1.73;;
43449;SDS011;29041;42.266;23.110;2023-07-20T10:58:58;3.87;;;1.80;;
43449;SDS011;29041;42.266;23.110;2023-07-20T11:01:47;2.63;;;1.45;;
43449;SDS011;29041;42.266;23.110;2023-07-20T11:04:40;5.78;;;1.50;;
43449;SDS011;29041;42.266;23.110;2023-07-20T11:07:36;3.35;;;1.95;;
43449;SDS011;29041;42.266;23.110;2023-07-20T11:10:24;6.75;;;1.60;;
43449;SDS011;29041;42.266;23.110;2023-07-20T11:13:18;4.75;;;1.58;;
43449;SDS011;29041;42.266;23.110;2023-07-20T11:16:06;4.45;;;1.85;;
43449;SDS011;29041;42.266;23.110;2023-07-20T11:18:53;3.13;;;1.73;;
43449;SDS011;29041;42.266;23.110;2023-07-20T11:21:44;4.85;;;1.60;;
43449;SDS011;29041;42.266;23.110;2023-07-20T11:24:32;5.57;;;1.75;;
43449;SDS011;29041;42.266;23.110;2023-07-20T11:27:19;3.58;;;1.83;;
43449;SDS011;29041;42.266;23.110;2023-07-20T11:30:15;3.70;;;1.70;;
43449;SDS011;29041;42.266;23.110;2023-07-20T11:33:02;3.38;;;1.40;;
43449;SDS011;29041;42.266;23.110;2023-07-20T11:35:50;2.95;;;1.98;;
43449;SDS011;29041;42.266;23.110;2023-07-20T11:38:40;8.02;;;2.15;;
43449;SDS011;29041;42.266;23.110;2023-07-20T11:41:28;3.97;;;1.70;;
43449;SDS011;29041;42.266;23.110;2023-07-20T11:44:16;4.68;;;1.83;;
43449;SDS011;29041;42.266;23.110;2023-07-20T11:47:04;4.65;;;1.73;;
43449;SDS011;29041;42.266;23.110;2023-07-20T11:49:53;4.97;;;1.48;;
43449;SDS011;29041;42.266;23.110;2023-07-20T11:52:40;5.63;;;2.15;;
43449;SDS011;29041;42.266;23.110;2023-07-20T11:55:29;5.05;;;1.63;;
43449;SDS011;29041;42.266;23.110;2023-07-20T11:58:16;3.00;;;1.70;;
43449;SDS011;29041;42.266;23.110;2023-07-20T12:01:04;8.40;;;2.25;;
43449;SDS011;29041;42.266;23.110;2023-07-20T12:03:52;6.32;;;2.65;;
43449;SDS011;29041;42.266;23.110;2023-07-20T12:06:39;7.13;;;3.40;;
43449;SDS011;29041;42.266;23.110;2023-07-20T12:09:26;4.97;;;2.28;;
43449;SDS011;29041;42.266;23.110;2023-07-20T12:12:15;4.90;;;2.40;;
43449;SDS011;29041;42.266;23.110;2023-07-20T12:15:14;4.75;;;2.75;;
43449;SDS011;29041;42.266;23.110;2023-07-20T12:18:02;3.33;;;1.65;;
43449;SDS011;29041;42.266;23.110;2023-07-20T12:20:58;5.32;;;3.05;;
43449;SDS011;29041;42.266;23.110;2023-07-20T12:23:45;4.78;;;2.83;;
43449;SDS011;29041;42.266;23.110;2023-07-20T12:26:33;6.72;;;2.42;;
43449;SDS011;29041;42.266;23.110;2023-07-20T12:29:22;10.30;;;3.13;;
43449;SDS011;29041;42.266;23.110;2023-07-20T12:32:09;6.78;;;2.55;;
43449;SDS011;29041;42.266;23.110;2023-07-20T12:34:56;4.78;;;3.30;;
43449;SDS011;29041;42.266;23.110;2023-07-20T12:37:45;6.18;;;2.30;;
43449;SDS011;29041;42.266;23.110;2023-07-20T12:40:34;3.92;;;2.03;;
43449;SDS011;29041;42.266;23.110;2023-07-20T12:43:21;5.07;;;2.90;;
43449;SDS011;29041;42.266;23.110;2023-07-20T12:46:10;8.55;;;2.40;;
43449;SDS011;29041;42.266;23.110;2023-07-20T12:48:58;4.82;;;3.03;;
43449;SDS011;29041;42.266;23.110;2023-07-20T12:51:45;3.78;;;2.67;;
43449;SDS011;29041;42.266;23.110;2023-07-20T12:54:33;4.30;;;2.67;;
43449;SDS011;29041;42.266;23.110;2023-07-20T12:57:20;5.72;;;2.42;;
43449;SDS011;29041;42.266;23.110;2023-07-20T13:00:08;6.28;;;2.47;;
43449;SDS011;29041;42.266;23.110;2023-07-20T13:02:58;9.23;;;2.92;;
43449;SDS011;29041;42.266;23.110;2023-07-20T13:05:45;6.28;;;2.47;;
43449;SDS011;29041;42.266;23.110;2023-07-20T13:08:33;4.30;;;1.98;;
43449;SDS011;29041;42.266;23.110;2023-07-20T13:11:20;6.03;;;2.55;;
43449;SDS011;29041;42.266;23.110;2023-07-20T13:14:07;5.70;;;2.55;;
43449;SDS011;29041;42.266;23.110;2023-07-20T13:16:55;4.97;;;2.40;;
43449;SDS011;29041;42.266;23.110;2023-07-20T13:19:44;4.00;;;2.88;;
43449;SDS011;29041;42.266;23.110;2023-07-20T13:22:31;5.82;;;2.90;;
43449;SDS011;29041;42.266;23.110;2023-07-20T13:25:19;5.45;;;2.58;;
43449;SDS011;29041;42.266;23.110;2023-07-20T13:28:07;4.72;;;3.22;;
43449;SDS011;29041;42.266;23.110;2023-07-20T13:30:54;5.95;;;2.65;;
43449;SDS011;29041;42.266;23.110;2023-07-20T13:33:41;4.80;;;2.90;;
43449;SDS011;29041;42.266;23.110;2023-07-20T13:36:32;5.55;;;2.17;;
43449;SDS011;29041;42.266;23.110;2023-07-20T13:39:19;5.47;;;3.00;;
43449;SDS011;29041;42.266;23.110;2023-07-20T13:42:09;3.88;;;2.35;;
43449;SDS011;29041;42.266;23.110;2023-07-20T13:44:58;5.82;;;3.03;;
43449;SDS011;29041;42.266;23.110;2023-07-20T13:47:45;4.45;;;2.83;;
43449;SDS011;29041;42.266;23.110;2023-07-20T13:50:32;4.78;;;2.38;;
43449;SDS011;29041;42.266;23.110;2023-07-20T13:53:21;6.40;;;3.00;;
43449;SDS011;29041;42.266;23.110;2023-07-20T13:56:08;6.40;;;3.10;;
43449;SDS011;29041;42.266;23.110;2023-07-20T13:58:55;5.80;;;2.58;;
43449;SDS011;29041;42.266;23.110;2023-07-20T14:01:43;4.30;;;2.70;;
43449;SDS011;29041;42.266;23.110;2023-07-20T14:04:30;7.45;;;3.00;;
43449;SDS011;29041;42.266;23.110;2023-07-20T14:07:17;2.88;;;2.30;;
43449;SDS011;29041;42.266;23.110;2023-07-20T14:10:06;6.75;;;2.72;;
43449;SDS011;29041;42.266;23.110;2023-07-20T14:12:53;17.23;;;4.22;;
43449;SDS011;29041;42.266;23.110;2023-07-20T14:15:41;7.15;;;2.47;;
43449;SDS011;29041;42.266;23.110;2023-07-20T14:18:28;13.23;;;3.72;;
43449;SDS011;29041;42.266;23.110;2023-07-20T14:21:15;3.50;;;2.78;;
43449;SDS011;29041;42.266;23.110;2023-07-20T14:24:05;3.40;;;2.30;;
43449;SDS011;29041;42.266;23.110;2023-07-20T14:26:53;6.15;;;2.17;;
43449;SDS011;29041;42.266;23.110;2023-07-20T14:29:41;5.28;;;2.95;;
43449;SDS011;29041;42.266;23.110;2023-07-20T14:32:28;5.97;;;2.90;;
43449;SDS011;29041;42.266;23.110;2023-07-20T14:35:16;5.57;;;3.05;;
43449;SDS011;29041;42.266;23.110;2023-07-20T14:38:04;7.10;;;2.75;;
43449;SDS011;29041;42.266;23.110;2023-07-20T14:40:51;6.32;;;2.50;;
43449;SDS011;29041;42.266;23.110;2023-07-20T14:43:40;3.70;;;2.53;;
43449;SDS011;29041;42.266;23.110;2023-07-20T14:46:27;4.47;;;2.45;;
43449;SDS011;29041;42.266;23.110;2023-07-20T14:49:14;6.05;;;1.90;;
43449;SDS011;29041;42.266;23.110;2023-07-20T14:52:01;5.15;;;2.50;;
43449;SDS011;29041;42.266;23.110;2023-07-20T14:54:49;4.22;;;2.30;;
43449;SDS011;29041;42.266;23.110;2023-07-20T14:57:36;6.85;;;2.70;;
43449;SDS011;29041;42.266;23.110;2023-07-20T15:00:25;4.05;;;2.00;;
43449;SDS011;29041;42.266;23.110;2023-07-20T15:03:12;4.20;;;2.10;;
43449;SDS011;29041;42.266;23.110;2023-07-20T15:05:59;4.13;;;1.73;;
43449;SDS011;29041;42.266;23.110;2023-07-20T15:08:47;6.32;;;2.08;;
43449;SDS011;29041;42.266;23.110;2023-07-20T15:11:35;4.60;;;1.90;;
43449;SDS011;29041;42.266;23.110;2023-07-20T15:14:23;4.93;;;2.13;;
43449;SDS011;29041;42.266;23.110;2023-07-20T15:17:11;6.60;;;1.98;;
43449;SDS011;29041;42.266;23.110;2023-07-20T15:19:59;4.15;;;2.22;;
43449;SDS011;29041;42.266;23.110;2023-07-20T15:22:46;3.45;;;2.60;;
43449;SDS011;29041;42.266;23.110;2023-07-20T15:25:33;6.15;;;2.25;;
43449;SDS011;29041;42.266;23.110;2023-07-20T15:28:20;4.43;;;1.88;;
43449;SDS011;29041;42.266;23.110;2023-07-20T15:31:08;4.32;;;2.50;;
43449;SDS011;29041;42.266;23.110;2023-07-20T15:33:57;2.30;;;1.42;;
43449;SDS011;29041;42.266;23.110;2023-07-20T15:36:44;4.65;;;2.28;;
43449;SDS011;29041;42.266;23.110;2023-07-20T15:39:31;4.68;;;2.13;;
43449;SDS011;29041;42.266;23.110;2023-07-20T15:42:18;4.32;;;1.58;;
43449;SDS011;29041;42.266;23.110;2023-07-20T15:45:06;3.72;;;1.88;;
43449;SDS011;29041;42.266;23.110;2023-07-20T15:47:54;5.05;;;1.85;;
43449;SDS011;29041;42.266;23.110;2023-07-20T15:50:42;4.30;;;2.20;;
43449;SDS011;29041;42.266;23.110;2023-07-20T15:53:32;3.33;;;1.17;;
43449;SDS011;29041;42.266;23.110;2023-07-20T15:56:22;1.90;;;1.30;;
43449;SDS011;29041;42.266;23.110;2023-07-20T15:59:10;3.13;;;1.60;;
43449;SDS011;29041;42.266;23.110;2023-07-20T16:01:58;4.70;;;1.70;;
43449;SDS011;29041;42.266;23.110;2023-07-20T16:04:46;1.17;;;0.73;;
43449;SDS011;29041;42.266;23.110;2023-07-20T16:07:35;2.50;;;1.05;;
43449;SDS011;29041;42.266;23.110;2023-07-20T16:10:22;5.65;;;1.65;;
43449;SDS011;29041;42.266;23.110;2023-07-20T16:13:11;4.03;;;1.35;;
43449;SDS011;29041;42.266;23.110;2023-07-20T16:15:58;2.00;;;1.30;;
43449;SDS011;29041;42.266;23.110;2023-07-20T16:18:45;3.97;;;1.08;;
43449;SDS011;29041;42.266;23.110;2023-07-20T16:21:32;5.03;;;1.20;;
43449;SDS011;29041;42.266;23.110;2023-07-20T16:24:21;2.47;;;1.25;;
43449;SDS011;29041;42.266;23.110;2023-07-20T16:27:08;3.22;;;1.10;;
43449;SDS011;29041;42.266;23.110;2023-07-20T16:29:56;9.48;;;1.45;;
43449;SDS011;29041;42.266;23.110;2023-07-20T16:32:43;3.58;;;1.20;;
43449;SDS011;29041;42.266;23.110;2023-07-20T16:35:31;5.50;;;1.15;;
43449;SDS011;29041;42.266;23.110;2023-07-20T16:38:18;2.30;;;0.98;;
43449;SDS011;29041;42.266;23.110;2023-07-20T16:41:07;3.13;;;1.13;;
43449;SDS011;29041;42.266;23.110;2023-07-20T16:43:55;2.78;;;1.20;;